Aroya, Colorado
Current Conditions -  °F | °C
As of 1:55 PM on Sunday 23 Nov 2014 (Local Time) from KLIC Reporting Station
Clear Clear  
Wind Chill: 28°   Ceiling: Unl
Heat Index: 38°   Visibility: 10mi
Dew Point: 14°   Wind: 18mph
Humidity: 38%   Direction: 360°N
Pressure: 29.75"   Gusts: NA
Location:  38.8543°N, 103.125°W
Report Text: KLIC 232055Z AUTO 36016KT 10SM CLR 03/M10 A2975 RMK AO2 PK WND 36027/2040 SLP060 T00331100 56004
Loading
Personal Weather Stations






























Interactive Weather Map New forecast layout! Learn more

10-Day Weather Forecast

Advertisements
Track Severe Weather on mobile